Time;durP1;ratioP1;P1;durP2;ratioP2;P2;SDS_P1;SDS_P2;PMS_P1;PMS_P2;Temp;Humidity;BMP_temperature;BMP_pressure;BME280_temperature;BME280_humidity;BME280_pressure;Samples;Min_cycle;Max_cycle;Signal;HPM_P1;HPM_P2
2021/08/04 00:00:36;;;;;;;6.03;5.53;;;16.90;99.90;;;;;;5079949;28;20171;-59
2021/08/04 00:03:02;;;;;;;6.70;5.30;;;16.90;99.90;;;;;;5068391;28;20273;-56
2021/08/04 00:05:28;;;;;;;5.77;5.27;;;16.90;99.90;;;;;;5072752;28;20182;-60
2021/08/04 00:07:54;;;;;;;6.77;5.73;;;17.00;99.90;;;;;;5070923;28;20176;-53
2021/08/04 00:10:20;;;;;;;7.00;6.00;;;17.10;99.90;;;;;;5056133;28;20190;-61
2021/08/04 00:12:47;;;;;;;6.67;6.07;;;17.20;99.90;;;;;;5054717;28;20218;-55
2021/08/04 00:15:14;;;;;;;7.23;5.87;;;17.20;99.90;;;;;;5065821;28;20195;-50
2021/08/04 00:17:41;;;;;;;5.70;4.87;;;17.20;99.90;;;;;;5075008;28;20174;-50
2021/08/04 00:20:08;;;;;;;6.00;5.50;;;17.20;99.90;;;;;;5074473;28;20639;-56
2021/08/04 00:22:34;;;;;;;6.00;5.50;;;17.10;99.90;;;;;;5073745;28;20186;-60
2021/08/04 00:25:00;;;;;;;6.00;5.40;;;17.00;99.90;;;;;;5074840;28;20178;-60
2021/08/04 00:27:27;;;;;;;6.33;5.70;;;17.10;99.90;;;;;;5075469;28;20199;-53
2021/08/04 00:29:53;;;;;;;8.37;7.57;;;17.00;99.90;;;;;;5075221;28;20178;-51
2021/08/04 00:32:19;;;;;;;7.13;6.50;;;17.00;99.90;;;;;;5074714;28;20213;-61
2021/08/04 00:34:45;;;;;;;6.10;5.60;;;17.10;99.90;;;;;;5063172;28;20198;-60
2021/08/04 00:37:11;;;;;;;7.13;6.53;;;17.00;99.90;;;;;;5074012;28;20171;-53
2021/08/04 00:39:37;;;;;;;8.03;7.13;;;17.10;99.90;;;;;;5074935;28;20177;-60
2021/08/04 00:42:03;;;;;;;7.00;6.37;;;17.10;99.90;;;;;;5074149;28;20177;-51
2021/08/04 00:44:28;;;;;;;5.60;5.10;;;17.10;99.90;;;;;;5075191;28;20662;-57
2021/08/04 00:46:54;;;;;;;5.87;5.37;;;17.10;99.90;;;;;;5075953;28;20216;-53
2021/08/04 00:49:20;;;;;;;8.40;7.50;;;17.10;99.90;;;;;;5074276;28;20170;-51
2021/08/04 00:51:45;;;;;;;8.30;7.10;;;17.00;99.90;;;;;;5074135;28;20198;-57
2021/08/04 00:54:11;;;;;;;7.37;6.63;;;16.90;99.90;;;;;;5074231;28;20277;-52
2021/08/04 00:56:37;;;;;;;6.70;5.73;;;16.90;99.90;;;;;;5074004;28;20202;-61
2021/08/04 00:59:04;;;;;;;5.73;5.23;;;16.80;99.90;;;;;;5074804;28;20178;-61
2021/08/04 01:01:51;;;;;;;6.50;5.90;;;16.80;99.90;;;;;;5074753;28;20171;-60
2021/08/04 01:04:33;;;;;;;6.80;6.13;;;16.90;99.90;;;;;;5073877;28;20305;-59
2021/08/04 01:07:14;;;;;;;6.33;5.73;;;17.00;99.90;;;;;;5074753;28;20220;-60
2021/08/04 01:09:49;;;;;;;5.97;5.37;;;16.90;99.90;;;;;;5074267;28;20285;-59
2021/08/04 01:12:20;;;;;;;5.67;5.17;;;17.00;99.90;;;;;;5073980;28;20198;-60
2021/08/04 01:14:49;;;;;;;7.07;5.23;;;17.00;99.90;;;;;;5074184;28;20202;-54
2021/08/04 01:17:16;;;;;;;5.97;5.37;;;17.00;99.90;;;;;;5074069;28;20163;-59
2021/08/04 01:19:59;;;;;;;8.03;6.30;;;17.00;99.90;;;;;;5076991;28;20167;-61
2021/08/04 01:22:45;;;;;;;5.87;5.37;;;17.00;99.90;;;;;;5074042;28;20167;-55
2021/08/04 01:25:15;;;;;;;6.50;5.87;;;16.90;99.90;;;;;;5073956;28;20179;-51
2021/08/04 01:27:54;;;;;;;5.60;5.00;;;16.90;99.90;;;;;;5073049;28;20614;-60
2021/08/04 01:30:20;;;;;;;6.63;6.03;;;16.80;99.90;;;;;;5074535;28;20192;-51
2021/08/04 01:32:48;;;;;;;6.00;5.40;;;16.80;99.90;;;;;;5073487;28;20211;-55
2021/08/04 01:35:15;;;;;;;6.70;5.83;;;16.90;99.90;;;;;;5074076;28;20675;-52
2021/08/04 01:37:42;;;;;;;6.00;5.40;;;16.90;99.90;;;;;;5074056;28;20615;-53
2021/08/04 01:40:11;;;;;;;6.27;5.67;;;16.90;99.90;;;;;;5073774;28;20558;-50
2021/08/04 01:42:38;;;;;;;7.83;7.10;;;16.90;99.90;;;;;;5073925;28;20190;-58
2021/08/04 01:45:06;;;;;;;6.40;5.80;;;16.90;99.90;;;;;;5074071;28;20206;-60
2021/08/04 01:47:32;;;;;;;8.70;7.87;;;16.80;99.90;;;;;;5074116;28;20179;-59
2021/08/04 01:49:59;;;;;;;6.47;5.27;;;16.70;99.90;;;;;;5073728;28;20174;-52
2021/08/04 01:52:25;;;;;;;7.00;6.30;;;16.70;99.90;;;;;;5073248;28;20202;-58
2021/08/04 01:54:51;;;;;;;7.20;6.50;;;16.70;99.90;;;;;;5074843;28;20176;-58
2021/08/04 01:57:17;;;;;;;7.50;6.80;;;16.50;99.90;;;;;;5073483;28;20175;-54
2021/08/04 01:59:43;;;;;;;8.87;7.63;;;16.40;99.90;;;;;;5073794;28;20495;-50
2021/08/04 02:02:17;;;;;;;9.30;8.40;;;16.40;99.90;;;;;;5073850;28;20179;-55
2021/08/04 02:04:42;;;;;;;10.20;9.30;;;16.30;99.90;;;;;;5073740;28;20535;-59
2021/08/04 02:07:15;;;;;;;10.23;9.17;;;16.30;99.90;;;;;;5075158;28;20181;-60
2021/08/04 02:09:47;;;;;;;9.73;8.73;;;16.40;99.90;;;;;;5073961;28;20187;-50
2021/08/04 02:12:13;;;;;;;12.57;10.97;;;16.50;99.90;;;;;;5074940;28;20194;-58
2021/08/04 02:14:52;;;;;;;10.23;8.67;;;16.50;99.90;;;;;;5073604;28;20197;-56
2021/08/04 02:17:29;;;;;;;11.57;8.87;;;16.70;99.90;;;;;;5073988;28;20181;-61
2021/08/04 02:20:20;;;;;;;9.67;8.60;;;16.70;99.90;;;;;;5074056;28;20165;-55
2021/08/04 02:22:57;;;;;;;8.00;7.20;;;16.80;99.90;;;;;;5063892;28;20210;-61
2021/08/04 02:25:53;;;;;;;7.43;6.73;;;16.70;99.90;;;;;;5073791;28;20642;-57
2021/08/04 02:28:28;;;;;;;10.40;8.93;;;16.60;99.90;;;;;;5073728;28;20182;-60
2021/08/04 02:30:54;;;;;;;8.70;7.90;;;16.50;99.90;;;;;;5074623;28;20178;-60
2021/08/04 02:33:21;;;;;;;7.60;6.90;;;16.40;99.90;;;;;;5072539;28;20210;-58
2021/08/04 02:35:47;;;;;;;7.47;6.87;;;16.50;99.90;;;;;;5072988;28;20646;-50
2021/08/04 02:38:15;;;;;;;8.97;8.17;;;16.40;99.90;;;;;;5076225;28;20178;-58
2021/08/04 02:40:40;;;;;;;7.90;7.10;;;16.50;99.90;;;;;;5077249;28;20638;-60
2021/08/04 02:43:08;;;;;;;6.03;5.43;;;16.50;99.90;;;;;;5076745;28;20195;-51
2021/08/04 02:45:34;;;;;;;5.83;5.23;;;16.40;99.90;;;;;;5077540;28;20270;-61
2021/08/04 02:47:59;;;;;;;5.47;4.83;;;16.40;99.90;;;;;;5077558;28;20210;-56
2021/08/04 02:50:27;;;;;;;5.43;4.20;;;16.30;99.90;;;;;;5077075;28;20183;-58
2021/08/04 02:52:53;;;;;;;5.87;4.50;;;16.20;99.90;;;;;;5077471;28;20561;-50
2021/08/04 02:55:18;;;;;;;4.80;3.80;;;16.20;99.90;;;;;;5077365;28;20689;-51
2021/08/04 02:57:44;;;;;;;4.00;3.70;;;16.00;99.90;;;;;;5076577;28;20674;-59
2021/08/04 03:00:10;;;;;;;5.73;3.33;;;15.90;99.90;;;;;;5071130;28;20248;-56
2021/08/04 03:02:37;;;;;;;5.67;3.80;;;15.80;99.90;;;;;;5056880;28;20190;-53
2021/08/04 03:05:03;;;;;;;4.10;3.70;;;15.80;99.90;;;;;;5057244;28;20183;-56
2021/08/04 03:07:29;;;;;;;4.00;3.60;;;15.80;99.90;;;;;;5057277;28;20233;-57
2021/08/04 03:09:55;;;;;;;4.77;3.50;;;15.80;99.90;;;;;;5056316;28;20689;-55
2021/08/04 03:12:20;;;;;;;5.57;3.60;;;15.80;99.90;;;;;;5056743;28;20199;-59
2021/08/04 03:14:46;;;;;;;3.80;3.47;;;15.80;99.90;;;;;;5055475;28;20195;-55
2021/08/04 03:17:12;;;;;;;3.67;3.37;;;15.90;99.90;;;;;;5056868;28;20531;-50
2021/08/04 03:19:37;;;;;;;4.33;3.33;;;15.90;99.90;;;;;;5056599;28;20630;-53
2021/08/04 03:22:03;;;;;;;3.47;3.17;;;15.90;99.90;;;;;;5057464;28;20171;-50
2021/08/04 03:24:29;;;;;;;3.83;3.40;;;16.00;99.90;;;;;;5056822;28;20206;-55
2021/08/04 03:26:54;;;;;;;5.40;3.70;;;16.00;99.90;;;;;;5055424;28;20179;-60
2021/08/04 03:29:20;;;;;;;5.20;3.53;;;16.20;99.90;;;;;;5056330;28;20508;-61
2021/08/04 03:31:45;;;;;;;3.47;3.10;;;16.20;99.90;;;;;;5056014;28;20693;-60
2021/08/04 03:34:11;;;;;;;4.10;3.33;;;16.40;99.90;;;;;;5056433;28;20187;-55
2021/08/04 03:36:36;;;;;;;7.00;3.37;;;16.40;99.90;;;;;;5055820;28;20198;-57
2021/08/04 03:39:02;;;;;;;3.97;3.20;;;16.40;99.90;;;;;;5056764;28;20167;-57
2021/08/04 03:41:28;;;;;;;3.77;3.40;;;16.30;99.90;;;;;;5056233;28;20174;-50
2021/08/04 03:43:53;;;;;;;4.53;3.20;;;16.40;99.90;;;;;;5055727;28;20187;-56
2021/08/04 03:46:19;;;;;;;3.60;3.20;;;16.30;99.90;;;;;;5055896;28;20194;-55
2021/08/04 03:48:44;;;;;;;3.50;3.20;;;16.40;99.90;;;;;;5053998;28;20171;-54
2021/08/04 03:51:10;;;;;;;3.63;3.33;;;16.40;99.90;;;;;;5055093;28;20171;-50
2021/08/04 03:53:36;;;;;;;3.97;3.20;;;16.40;99.90;;;;;;5055377;28;20559;-58
2021/08/04 03:56:01;;;;;;;3.57;3.13;;;16.50;99.90;;;;;;5059723;28;20221;-53
2021/08/04 03:58:28;;;;;;;5.37;3.27;;;16.40;99.90;;;;;;5055679;28;20171;-54
2021/08/04 04:00:54;;;;;;;5.73;3.40;;;16.50;99.90;;;;;;5055803;28;20171;-54
2021/08/04 04:03:19;;;;;;;4.47;3.67;;;16.50;99.90;;;;;;5054281;28;20195;-53
2021/08/04 04:05:45;;;;;;;3.43;3.13;;;16.60;99.90;;;;;;5055734;28;20194;-60
2021/08/04 04:08:11;;;;;;;3.70;3.37;;;16.60;99.90;;;;;;5055904;28;20183;-58
2021/08/04 04:10:36;;;;;;;4.37;3.40;;;16.70;99.90;;;;;;5055369;28;20590;-57
2021/08/04 04:13:02;;;;;;;4.83;3.80;;;16.60;99.90;;;;;;5056185;28;20249;-53
2021/08/04 04:15:27;;;;;;;3.63;3.20;;;16.50;99.90;;;;;;5055616;28;20176;-58
2021/08/04 04:17:53;;;;;;;5.03;3.40;;;16.60;99.90;;;;;;5055665;28;20618;-60
2021/08/04 04:20:18;;;;;;;4.63;3.40;;;16.80;99.90;;;;;;5054691;28;20175;-53
2021/08/04 04:22:44;;;;;;;3.67;3.27;;;16.90;99.90;;;;;;5054410;28;20196;-60
2021/08/04 04:25:12;;;;;;;4.20;3.20;;;16.80;99.90;;;;;;5055703;28;20176;-52
2021/08/04 04:27:39;;;;;;;3.50;3.20;;;16.70;99.90;;;;;;5055246;28;20590;-54
2021/08/04 04:30:05;;;;;;;4.70;3.33;;;16.60;99.90;;;;;;5057006;28;20175;-58
2021/08/04 04:32:31;;;;;;;4.00;3.40;;;16.60;99.90;;;;;;5054575;28;20244;-53
2021/08/04 04:34:56;;;;;;;4.87;3.27;;;16.50;99.90;;;;;;5055900;28;20175;-60
2021/08/04 04:37:22;;;;;;;3.93;3.03;;;16.30;99.90;;;;;;5055333;28;20260;-52
2021/08/04 04:39:47;;;;;;;5.73;3.53;;;16.20;99.90;;;;;;5054689;28;20241;-55
2021/08/04 04:42:13;;;;;;;4.23;3.17;;;16.10;99.90;;;;;;5053738;28;20171;-50
2021/08/04 04:44:38;;;;;;;3.40;3.10;;;16.10;99.90;;;;;;5055103;28;20199;-54
2021/08/04 04:47:04;;;;;;;3.17;2.80;;;16.20;99.90;;;;;;5057101;28;20230;-50
2021/08/04 04:49:30;;;;;;;3.33;3.03;;;16.30;99.90;;;;;;5054584;28;20215;-50
2021/08/04 04:51:55;;;;;;;3.57;3.27;;;16.40;99.90;;;;;;5054618;28;20195;-52
2021/08/04 04:54:21;;;;;;;4.00;3.33;;;16.60;99.90;;;;;;5054459;28;20571;-50
2021/08/04 04:56:47;;;;;;;4.23;3.57;;;16.70;99.90;;;;;;5054183;28;20267;-60
2021/08/04 04:59:12;;;;;;;3.40;3.10;;;16.70;99.90;;;;;;5055283;28;20599;-50
2021/08/04 05:01:38;;;;;;;3.73;3.20;;;16.70;99.90;;;;;;5054436;28;20217;-60
2021/08/04 05:04:03;;;;;;;4.00;3.70;;;16.80;99.90;;;;;;5053604;28;20269;-54
2021/08/04 05:06:30;;;;;;;3.37;3.07;;;16.80;99.90;;;;;;5055165;28;20202;-51
2021/08/04 05:08:56;;;;;;;4.17;3.70;;;16.80;99.90;;;;;;5053836;28;20199;-59
2021/08/04 05:11:22;;;;;;;3.87;3.43;;;16.70;99.90;;;;;;5069468;28;20159;-58
2021/08/04 05:13:47;;;;;;;4.27;3.00;;;16.70;99.90;;;;;;5076890;28;20233;-56
2021/08/04 05:16:13;;;;;;;4.93;3.40;;;16.50;99.90;;;;;;5068474;28;20175;-52
2021/08/04 05:18:38;;;;;;;3.43;3.13;;;16.50;99.90;;;;;;5076364;28;20174;-52
2021/08/04 05:21:04;;;;;;;5.10;3.43;;;16.40;99.90;;;;;;5092664;28;20158;-60
2021/08/04 05:23:29;;;;;;;5.27;3.17;;;16.50;99.90;;;;;;5082639;28;20580;-50
2021/08/04 05:25:55;;;;;;;6.17;3.10;;;16.50;99.90;;;;;;5089522;28;20174;-50
2021/08/04 05:28:21;;;;;;;4.20;2.93;;;16.50;99.90;;;;;;5061810;28;20191;-54
2021/08/04 05:30:46;;;;;;;3.27;2.97;;;16.70;99.90;;;;;;5087203;28;20182;-53
2021/08/04 05:33:12;;;;;;;3.10;2.90;;;16.90;99.90;;;;;;5076818;28;20218;-56
2021/08/04 05:35:37;;;;;;;3.43;3.13;;;17.00;99.90;;;;;;5073326;28;20179;-56
2021/08/04 05:38:03;;;;;;;6.23;3.10;;;17.10;99.90;;;;;;5071500;28;20171;-53
2021/08/04 05:40:28;;;;;;;3.83;3.47;;;17.10;99.90;;;;;;5071524;28;20178;-51
2021/08/04 05:42:54;;;;;;;4.83;3.20;;;17.00;99.90;;;;;;5071452;28;20192;-54
2021/08/04 05:45:19;;;;;;;5.50;3.80;;;16.90;99.90;;;;;;5072119;28;20188;-55
2021/08/04 05:47:45;;;;;;;4.63;3.50;;;16.90;99.90;;;;;;5073581;28;20253;-60
2021/08/04 05:50:11;;;;;;;3.97;3.57;;;16.80;99.90;;;;;;5073774;28;20178;-56
2021/08/04 05:52:36;;;;;;;5.50;3.80;;;16.80;99.90;;;;;;5073183;28;20229;-58
2021/08/04 05:55:04;;;;;;;4.63;3.77;;;16.60;99.90;;;;;;5074719;28;20210;-52
2021/08/04 05:57:30;;;;;;;4.63;3.30;;;16.60;99.90;;;;;;5074517;28;20539;-50
2021/08/04 05:59:55;;;;;;;10.57;3.27;;;16.60;99.90;;;;;;5072287;28;20623;-58
2021/08/04 06:02:20;;;;;;;4.70;3.10;;;16.50;99.90;;;;;;5072830;28;20658;-56
2021/08/04 06:04:46;;;;;;;4.97;3.20;;;16.50;99.90;;;;;;5073652;28;20194;-60
2021/08/04 06:07:12;;;;;;;3.60;3.30;;;16.50;99.90;;;;;;5074053;28;20198;-58
2021/08/04 06:09:37;;;;;;;3.70;3.23;;;16.40;99.90;;;;;;5074124;28;20191;-50
2021/08/04 06:12:03;;;;;;;3.90;3.33;;;16.40;99.90;;;;;;5073745;28;20198;-58
2021/08/04 06:14:28;;;;;;;3.80;3.03;;;16.40;99.90;;;;;;5077493;28;20202;-57
2021/08/04 06:16:54;;;;;;;4.03;3.20;;;16.30;99.90;;;;;;5078320;28;20193;-55
2021/08/04 06:19:20;;;;;;;3.53;3.10;;;16.30;99.90;;;;;;5077239;28;20187;-59
2021/08/04 06:21:45;;;;;;;4.33;3.60;;;16.30;99.90;;;;;;5078454;28;20576;-52
2021/08/04 06:24:11;;;;;;;5.03;3.40;;;16.30;99.90;;;;;;5078736;28;20568;-50
2021/08/04 06:26:36;;;;;;;4.43;3.57;;;16.20;99.90;;;;;;5077795;28;20631;-51
2021/08/04 06:29:02;;;;;;;4.23;3.67;;;16.30;99.90;;;;;;5076775;28;20187;-60
2021/08/04 06:31:28;;;;;;;3.97;3.10;;;16.50;99.90;;;;;;5077990;28;20175;-51
2021/08/04 06:33:53;;;;;;;5.67;3.40;;;16.60;99.90;;;;;;5076549;28;20268;-58
2021/08/04 06:36:19;;;;;;;3.87;3.10;;;16.60;99.90;;;;;;5076035;28;20177;-56
2021/08/04 06:38:44;;;;;;;5.47;2.80;;;16.70;99.90;;;;;;5077031;28;20309;-60
2021/08/04 06:41:10;;;;;;;2.70;2.50;;;16.70;99.90;;;;;;5077053;28;20539;-58
2021/08/04 06:43:35;;;;;;;3.60;3.30;;;16.70;99.90;;;;;;5076628;28;20201;-60
2021/08/04 06:46:08;;;;;;;4.67;3.10;;;16.70;99.90;;;;;;5077539;28;20178;-59
2021/08/04 06:48:33;;;;;;;5.33;3.30;;;16.70;99.90;;;;;;5077831;28;20167;-51
2021/08/04 06:50:59;;;;;;;3.50;3.20;;;16.60;99.90;;;;;;5080035;28;20192;-60
2021/08/04 06:53:24;;;;;;;3.40;3.10;;;16.60;99.90;;;;;;5076221;28;20223;-59
2021/08/04 06:55:50;;;;;;;3.37;3.07;;;16.60;99.90;;;;;;5076784;28;20176;-54
2021/08/04 06:58:15;;;;;;;3.20;2.83;;;16.60;99.90;;;;;;5079543;28;20168;-51
2021/08/04 07:00:41;;;;;;;4.27;3.00;;;17.00;99.90;;;;;;5078937;28;20183;-61
2021/08/04 07:03:06;;;;;;;3.90;3.30;;;16.70;99.90;;;;;;5076986;28;20195;-58
2021/08/04 07:05:32;;;;;;;3.20;2.90;;;16.80;99.90;;;;;;5076827;28;20697;-56
2021/08/04 07:07:58;;;;;;;3.47;2.90;;;16.90;99.90;;;;;;5077923;28;20192;-50
2021/08/04 07:10:23;;;;;;;3.17;2.87;;;17.10;99.90;;;;;;5077672;28;20193;-61
2021/08/04 07:12:49;;;;;;;5.80;3.47;;;17.10;99.90;;;;;;5077515;28;20208;-60
2021/08/04 07:15:15;;;;;;;3.20;2.90;;;17.40;99.90;;;;;;5077834;28;20177;-59
2021/08/04 07:17:48;;;;;;;5.43;2.90;;;17.50;99.90;;;;;;5077010;28;20181;-54
2021/08/04 07:20:15;;;;;;;3.50;3.03;;;17.40;99.90;;;;;;5077707;28;20176;-51
2021/08/04 07:22:41;;;;;;;3.63;2.77;;;17.50;99.90;;;;;;5077325;28;20189;-57
2021/08/04 07:25:08;;;;;;;2.50;2.30;;;17.80;99.90;;;;;;5075887;28;20182;-50
2021/08/04 07:27:34;;;;;;;2.50;2.30;;;17.90;99.90;;;;;;5076417;28;20660;-58
2021/08/04 07:29:59;;;;;;;2.97;2.67;;;18.10;99.90;;;;;;5077121;28;20178;-56
2021/08/04 07:32:25;;;;;;;2.77;2.57;;;18.00;99.90;;;;;;5077657;28;20616;-57
2021/08/04 07:34:51;;;;;;;2.77;2.57;;;18.00;99.90;;;;;;5057812;28;20229;-58
2021/08/04 07:37:16;;;;;;;2.70;2.50;;;18.10;99.90;;;;;;5056772;28;20564;-51
2021/08/04 07:39:41;;;;;;;3.63;2.57;;;18.50;99.90;;;;;;5056197;28;20175;-51
2021/08/04 07:42:07;;;;;;;3.13;2.80;;;18.60;99.90;;;;;;5056090;28;20179;-55
2021/08/04 07:44:35;;;;;;;3.33;2.30;;;18.60;99.90;;;;;;5056637;28;20563;-61
2021/08/04 07:47:00;;;;;;;4.17;2.70;;;18.90;99.90;;;;;;5056747;28;20646;-57
2021/08/04 07:49:26;;;;;;;3.30;3.00;;;18.90;99.90;;;;;;5057897;28;20175;-61
2021/08/04 07:51:51;;;;;;;2.50;2.30;;;18.90;99.90;;;;;;5057544;28;20176;-59
2021/08/04 07:54:17;;;;;;;2.60;2.40;;;19.10;99.90;;;;;;5056567;28;20733;-58
2021/08/04 07:56:42;;;;;;;2.67;2.47;;;19.50;99.90;;;;;;5055784;28;20182;-53
2021/08/04 07:59:08;;;;;;;3.87;2.37;;;19.70;99.90;;;;;;5055849;28;20172;-61
2021/08/04 08:01:33;;;;;;;2.50;2.30;;;19.90;99.90;;;;;;5056130;28;20172;-58
2021/08/04 08:03:59;;;;;;;2.40;2.20;;;19.90;99.90;;;;;;5056859;28;20198;-61
2021/08/04 08:06:25;;;;;;;2.20;2.10;;;20.00;99.90;;;;;;5055467;28;20183;-53
2021/08/04 08:08:50;;;;;;;2.13;1.93;;;20.10;99.90;;;;;;5057194;28;20546;-58
2021/08/04 08:11:16;;;;;;;2.57;2.37;;;20.20;99.90;;;;;;5056539;28;20172;-60
2021/08/04 08:13:41;;;;;;;2.60;2.40;;;20.10;99.90;;;;;;5055980;28;20226;-60
2021/08/04 08:16:07;;;;;;;4.33;2.30;;;20.00;99.90;;;;;;5055618;28;20164;-58
2021/08/04 08:18:32;;;;;;;2.97;2.67;;;20.10;99.90;;;;;;5056422;28;20168;-53
2021/08/04 08:20:58;;;;;;;2.40;2.20;;;19.90;99.90;;;;;;5054694;28;20190;-56
2021/08/04 08:23:23;;;;;;;2.57;2.37;;;19.90;99.90;;;;;;5055069;28;20248;-53
2021/08/04 08:25:49;;;;;;;2.27;2.07;;;19.80;99.90;;;;;;5056983;28;20171;-53
2021/08/04 08:28:16;;;;;;;3.17;2.60;;;19.50;99.90;;;;;;5054875;28;20170;-56
2021/08/04 08:30:42;;;;;;;2.23;2.03;;;19.20;99.90;;;;;;5056405;28;20163;-60
2021/08/04 08:33:08;;;;;;;2.10;2.00;;;19.50;99.90;;;;;;5056219;28;20671;-62
2021/08/04 08:35:33;;;;;;;2.60;2.10;;;19.80;99.90;;;;;;5054452;28;20182;-60
2021/08/04 08:37:59;;;;;;;2.60;2.40;;;19.80;99.90;;;;;;5055913;28;20178;-51
2021/08/04 08:40:25;;;;;;;2.20;2.00;;;19.90;99.90;;;;;;5056037;28;20181;-54
2021/08/04 08:42:52;;;;;;;2.23;2.07;;;20.10;99.90;;;;;;5054792;28;20222;-58
2021/08/04 08:45:18;;;;;;;2.10;2.00;;;20.60;99.90;;;;;;5070322;28;20716;-56
2021/08/04 08:47:44;;;;;;;2.17;2.05;;;20.80;99.90;;;;;;5058221;28;20183;-59
2021/08/04 08:50:13;;;;;;;2.80;2.20;;;21.10;99.90;;;;;;5055956;28;20523;-55
2021/08/04 08:52:38;;;;;;;1.90;1.80;;;21.50;99.90;;;;;;5055384;28;20208;-55
2021/08/04 08:55:07;;;;;;;2.42;2.17;;;21.80;99.90;;;;;;5055645;28;20172;-53
2021/08/04 08:57:33;;;;;;;3.65;2.22;;;22.00;99.90;;;;;;5055307;28;20174;-55
2021/08/04 08:59:59;;;;;;;2.03;1.92;;;22.00;99.90;;;;;;5055263;28;20185;-54
2021/08/04 09:02:25;;;;;;;2.70;2.30;;;21.80;99.90;;;;;;5055265;28;20215;-60
2021/08/04 09:05:02;;;;;;;1.73;1.63;;;22.00;99.90;;;;;;5056596;28;20175;-62
2021/08/04 09:07:36;;;;;;;2.00;1.90;;;22.10;99.90;;;;;;5055355;28;20187;-51
2021/08/04 09:10:27;;;;;;;1.95;1.85;;;22.30;99.90;;;;;;5054722;28;20204;-59
2021/08/04 09:12:55;;;;;;;2.58;1.95;;;22.30;99.90;;;;;;5049044;28;20214;-61
2021/08/04 09:15:26;;;;;;;2.67;1.90;;;22.10;99.90;;;;;;5053670;28;20207;-59
2021/08/04 09:18:19;;;;;;;3.25;1.70;;;22.00;99.90;;;;;;5051957;28;20717;-54
2021/08/04 09:20:51;;;;;;;2.70;2.33;;;21.70;99.90;;;;;;5051444;28;20586;-53
2021/08/04 09:23:18;;;;;;;2.05;1.75;;;21.20;99.90;;;;;;5055180;28;20230;-61
2021/08/04 09:26:06;;;;;;;1.63;1.52;;;21.30;99.90;;;;;;5054838;28;20227;-51
2021/08/04 09:28:53;;;;;;;2.88;1.60;;;21.00;99.90;;;;;;5053946;28;20220;-61
2021/08/04 09:31:19;;;;;;;2.70;1.83;;;20.80;99.90;;;;;;5055416;28;20174;-57
2021/08/04 09:33:46;;;;;;;2.00;1.67;;;20.80;99.90;;;;;;5055705;28;20264;-56
2021/08/04 09:36:17;;;;;;;1.83;1.73;;;20.50;99.90;;;;;;5054633;28;20194;-53
2021/08/04 09:39:04;;;;;;;1.98;1.48;;;20.50;99.90;;;;;;5054951;28;20214;-52
2021/08/04 09:41:30;;;;;;;2.13;1.77;;;20.70;99.90;;;;;;5054173;28;20173;-55
2021/08/04 09:44:06;;;;;;;1.83;1.73;;;20.90;99.90;;;;;;5054373;28;20241;-60
2021/08/04 09:46:33;;;;;;;1.60;1.50;;;20.90;99.90;;;;;;5055005;28;20539;-61
2021/08/04 09:49:17;;;;;;;1.60;1.50;;;21.10;99.90;;;;;;5054221;28;20269;-61
2021/08/04 09:51:44;;;;;;;1.67;1.58;;;21.10;99.90;;;;;;5054343;28;20705;-62
2021/08/04 09:54:12;;;;;;;2.40;2.03;;;20.90;99.90;;;;;;5053795;28;20190;-51
2021/08/04 09:56:52;;;;;;;8.73;1.83;;;21.20;99.90;;;;;;5053896;28;20193;-52
2021/08/04 09:59:18;;;;;;;1.48;1.38;;;21.50;99.90;;;;;;5054133;28;20176;-52
2021/08/04 10:01:44;;;;;;;1.77;1.67;;;21.80;99.90;;;;;;5053811;28;20174;-61
2021/08/04 10:04:11;;;;;;;1.95;1.70;;;22.10;99.90;;;;;;5054624;28;20574;-57
2021/08/04 10:06:39;;;;;;;1.77;1.48;;;22.10;99.90;;;;;;5054098;28;20175;-61
2021/08/04 10:09:09;;;;;;;1.75;1.65;;;22.60;99.90;;;;;;5053839;28;20187;-62
2021/08/04 10:11:43;;;;;;;2.05;1.70;;;22.20;99.90;;;;;;5054254;28;20182;-56
2021/08/04 10:14:13;;;;;;;1.88;1.75;;;22.40;99.90;;;;;;5053693;28;20202;-59
2021/08/04 10:16:39;;;;;;;1.80;1.70;;;22.10;99.90;;;;;;5053455;28;20148;-52
2021/08/04 10:19:06;;;;;;;2.72;1.80;;;21.90;99.90;;;;;;5054390;28;20477;-62
2021/08/04 10:21:33;;;;;;;1.83;1.73;;;21.60;99.90;;;;;;5053804;28;20209;-52
2021/08/04 10:24:02;;;;;;;2.67;1.85;;;21.50;99.90;;;;;;5053662;28;20205;-56
2021/08/04 10:26:28;;;;;;;2.28;1.70;;;21.30;99.90;;;;;;5053633;28;20520;-51
2021/08/04 10:28:57;;;;;;;2.13;1.92;;;21.40;99.90;;;;;;5052916;28;20178;-60
2021/08/04 10:31:24;;;;;;;1.70;1.60;;;21.50;99.90;;;;;;5054293;28;20232;-51
2021/08/04 10:33:50;;;;;;;1.73;1.63;;;21.70;99.90;;;;;;5054701;28;20232;-54
2021/08/04 10:36:18;;;;;;;2.33;1.80;;;21.60;99.90;;;;;;5053641;28;20222;-51
2021/08/04 10:38:50;;;;;;;2.33;1.58;;;21.60;99.90;;;;;;5053446;28;20194;-61
2021/08/04 10:41:24;;;;;;;2.13;1.67;;;21.50;99.90;;;;;;5053537;28;20181;-62
2021/08/04 10:43:57;;;;;;;2.10;1.70;;;21.30;99.90;;;;;;5053660;28;20746;-51
2021/08/04 10:46:32;;;;;;;1.77;1.67;;;21.10;99.90;;;;;;5053695;28;20183;-52
2021/08/04 10:49:06;;;;;;;1.73;1.48;;;21.20;99.90;;;;;;5053691;28;20625;-58
2021/08/04 10:51:35;;;;;;;2.00;1.80;;;21.20;99.90;;;;;;5054069;28;20172;-61
2021/08/04 10:54:00;;;;;;;1.50;1.40;;;21.10;99.90;;;;;;5053461;28;20206;-62
2021/08/04 10:56:48;;;;;;;1.80;1.40;;;21.20;99.90;;;;;;5052817;28;20253;-61
2021/08/04 10:59:13;;;;;;;2.38;1.40;;;21.50;99.90;;;;;;5048589;28;20519;-63
2021/08/04 11:02:06;;;;;;;2.20;1.60;;;21.90;99.90;;;;;;5057187;28;20631;-61
2021/08/04 11:04:32;;;;;;;1.67;1.58;;;22.20;99.90;;;;;;5051952;28;20249;-56
2021/08/04 11:07:07;;;;;;;1.75;1.60;;;22.60;99.90;;;;;;5057367;28;20175;-57
2021/08/04 11:09:37;;;;;;;1.85;1.60;;;22.80;99.90;;;;;;5057487;28;20187;-52
2021/08/04 11:12:16;;;;;;;1.75;1.60;;;23.10;99.90;;;;;;5073813;28;20175;-62
2021/08/04 11:14:56;;;;;;;1.40;1.30;;;23.40;99.90;;;;;;5078499;28;20188;-55
2021/08/04 11:17:24;;;;;;;1.30;1.20;;;23.30;99.90;;;;;;5077165;28;20162;-60
2021/08/04 11:20:06;;;;;;;2.30;1.33;;;23.10;99.90;;;;;;5077858;28;20174;-55
2021/08/04 11:22:43;;;;;;;1.40;1.30;;;22.80;99.90;;;;;;5076058;28;20252;-53
2021/08/04 11:25:24;;;;;;;1.65;1.42;;;22.70;99.90;;;;;;5076535;28;20174;-52
2021/08/04 11:27:53;;;;;;;1.42;1.33;;;22.60;99.90;;;;;;5077246;28;20250;-59
2021/08/04 11:30:39;;;;;;;1.50;1.40;;;22.20;99.90;;;;;;5078349;28;20170;-55
2021/08/04 11:33:27;;;;;;;1.45;1.35;;;21.90;99.90;;;;;;5076945;28;20213;-62
2021/08/04 11:36:26;;;;;;;2.25;1.70;;;21.60;99.90;;;;;;5077370;28;20167;-54
2021/08/04 11:39:01;;;;;;;1.95;1.77;;;21.20;99.90;;;;;;5076396;28;20536;-51
2021/08/04 11:41:42;;;;;;;1.80;1.70;;;20.90;99.90;;;;;;5076776;28;20171;-54
2021/08/04 11:44:20;;;;;;;1.67;1.58;;;20.90;99.90;;;;;;5076153;28;20663;-62
2021/08/04 11:47:05;;;;;;;1.65;1.55;;;21.00;99.90;;;;;;5078696;28;20176;-55
2021/08/04 11:49:34;;;;;;;1.75;1.65;;;21.00;99.90;;;;;;5077100;28;20159;-59
2021/08/04 11:52:16;;;;;;;1.92;1.73;;;21.20;99.90;;;;;;5076159;28;20180;-49
2021/08/04 11:54:52;;;;;;;1.60;1.50;;;21.40;99.90;;;;;;5077339;28;20210;-61
2021/08/04 11:57:29;;;;;;;2.33;1.40;;;21.50;99.90;;;;;;5075860;28;20170;-50
2021/08/04 11:59:57;;;;;;;1.63;1.52;;;21.60;99.90;;;;;;5076919;28;20736;-60
2021/08/04 12:02:23;;;;;;;1.80;1.70;;;21.50;99.90;;;;;;5076401;28;20180;-54
2021/08/04 12:04:52;;;;;;;2.08;1.70;;;21.40;99.90;;;;;;5075503;28;20696;-49
2021/08/04 12:07:25;;;;;;;1.60;1.50;;;21.20;99.90;;;;;;5062102;28;20222;-61
2021/08/04 12:09:51;;;;;;;1.80;1.70;;;21.00;99.90;;;;;;5055344;28;20666;-56
2021/08/04 12:12:19;;;;;;;1.67;1.40;;;21.20;99.90;;;;;;5056159;28;20202;-58
2021/08/04 12:14:46;;;;;;;1.63;1.53;;;21.20;99.90;;;;;;5056156;28;20245;-61
2021/08/04 12:17:20;;;;;;;1.43;1.33;;;21.10;99.90;;;;;;5056192;28;20565;-52
2021/08/04 12:19:47;;;;;;;1.60;1.50;;;21.10;99.90;;;;;;5055492;28;20162;-53
2021/08/04 12:22:26;;;;;;;1.97;1.80;;;21.00;99.90;;;;;;5056349;28;20255;-52
2021/08/04 12:24:57;;;;;;;1.53;1.43;;;21.00;99.90;;;;;;5055768;28;20217;-61
2021/08/04 12:27:44;;;;;;;1.90;1.77;;;21.00;99.90;;;;;;5055583;28;20167;-52
2021/08/04 12:30:18;;;;;;;2.70;1.80;;;21.20;99.90;;;;;;5056028;28;20175;-57
2021/08/04 12:32:56;;;;;;;1.57;1.40;;;21.20;99.90;;;;;;5054747;28;20191;-50
2021/08/04 12:35:25;;;;;;;2.25;1.80;;;21.20;99.90;;;;;;5055250;28;20262;-60
2021/08/04 12:37:52;;;;;;;1.60;1.50;;;21.10;99.90;;;;;;5055945;28;20198;-52
2021/08/04 12:40:18;;;;;;;1.67;1.38;;;21.10;99.90;;;;;;5055124;28;20168;-61
2021/08/04 12:42:43;;;;;;;2.28;1.75;;;21.30;99.90;;;;;;5054921;28;20237;-52
2021/08/04 12:45:24;;;;;;;2.15;1.50;;;21.20;99.90;;;;;;5055540;28;20175;-57
2021/08/04 12:48:08;;;;;;;1.55;1.45;;;21.40;99.90;;;;;;5054853;28;20184;-56
2021/08/04 12:50:58;;;;;;;2.20;1.70;;;21.70;99.90;;;;;;5053734;28;20159;-53
2021/08/04 12:53:27;;;;;;;1.70;1.50;;;21.80;99.90;;;;;;5054157;28;20239;-52